^^
Datos históricos de la estación: Murcia-Puente Tocinos
Diario Informe para Mayo 10, 2021 Unidades:  Ingés    Métrico   Ambas
Diario Semanal Mensual Anual
  Máxima: Mínima: Promedio:
Temperatura: 73.8 °F 64.9 °F 68.9 °F
Punto de rocio: 57 °F 48 °F 51.4 °F
Humedad: 75% 44.3% 54%
Velocidad viento: 9.2mph 1.8mph 4.8mph
Racha viento: 17.3mph - -
Viento- - SO
Presión: 29.8 in 29.7 in -
Precipitación: 0 in    
 
 
Tabla de datos para Mayo 10, 2021
Hora Temperatura Punto de rocio Presión Viento Velocidad viento Racha viento Humedad Intensidad lluvia(por hora) Nubes
00:04 73.8 °F 51.1 °F 29.7 in Oeste 6.4 mph 15 mph 45% 0 in
00:09 73.8 °F 51.1 °F 29.7 in Oeste 8 mph 17 mph 45% 0 in
00:14 73.8 °F 51.1 °F 29.7 in Oeste 9.2 mph 17.3 mph 45% 0 in
00:19 73.6 °F 50.9 °F 29.7 in ONO 8.9 mph 9.7 mph 45% 0 in
00:24 73.6 °F 50.9 °F 29.7 in Oeste 8.7 mph 11.5 mph 45% 0 in
00:29 73.2 °F 50.7 °F 29.7 in Oeste 7.3 mph 12 mph 45% 0 in
00:34 73.2 °F 50.5 °F 29.7 in ONO 6.4 mph 10.4 mph 45% 0 in
00:39 73 °F 50.4 °F 29.7 in ONO 6.3 mph 11.2 mph 45% 0 in
00:44 72.9 °F 50.9 °F 29.7 in ONO 6.2 mph 12 mph 45.9% 0 in
00:49 72.9 °F 50.7 °F 29.7 in ONO 6 mph 12 mph 46% 0 in
00:54 72.7 °F 50.7 °F 29.7 in ONO 5.9 mph 13.8 mph 46% 0 in
00:59 72.7 °F 50.7 °F 29.7 in ONO 7.3 mph 13 mph 46% 0 in
01:04 72.7 °F 50.5 °F 29.7 in ONO 8.1 mph 13 mph 46% 0 in
01:09 72.3 °F 50.5 °F 29.7 in ONO 7.4 mph 13 mph 46% 0 in
01:14 72.3 °F 50.4 °F 29.8 in ONO 6.9 mph 12.3 mph 46% 0 in
01:19 72.1 °F 50.4 °F 29.8 in ONO 7.2 mph 13 mph 46% 0 in
01:24 72.1 °F 50.2 °F 29.8 in ONO 7.4 mph 13 mph 46% 0 in
01:29 72 °F 50 °F 29.8 in ONO 7.4 mph 14 mph 46% 0 in
01:34 72 °F 49.6 °F 29.8 in ONO 7.4 mph 15 mph 45.4% 0 in
01:39 71.8 °F 49.3 °F 29.8 in ONO 7.1 mph 15 mph 45% 0 in
01:44 71.8 °F 49.3 °F 29.8 in ONO 6.9 mph 13.7 mph 45% 0 in
01:49 71.6 °F 49.1 °F 29.8 in ONO 6.9 mph 14 mph 45% 0 in
01:54 71.4 °F 49.1 °F 29.8 in ONO 6.9 mph 14 mph 45% 0 in
01:59 71.4 °F 48.9 °F 29.8 in Oeste 6.5 mph 13 mph 45% 0 in
02:04 71.4 °F 49.5 °F 29.8 in OSO 6.2 mph 9 mph 45.8% 0 in
02:09 71.4 °F 49.6 °F 29.8 in SO 4.8 mph 9 mph 46% 0 in
02:14 71.2 °F 49.5 °F 29.8 in SO 4 mph 8.1 mph 46% 0 in
02:19 71.2 °F 49.5 °F 29.8 in OSO 4.2 mph 8.7 mph 46% 0 in
02:24 71.2 °F 49.5 °F 29.8 in SO 4.3 mph 10.4 mph 46% 0 in
02:29 71.2 °F 49.5 °F 29.8 in OSO 5 mph 10 mph 46.1% 0 in
02:34 71.2 °F 49.6 °F 29.8 in OSO 5.4 mph 9.2 mph 46.4% 0 in
02:39 71.2 °F 49.5 °F 29.8 in SO 4.7 mph 9 mph 46% 0 in
02:44 71.2 °F 49.5 °F 29.8 in OSO 4 mph 9 mph 46% 0 in
02:49 71.2 °F 49.5 °F 29.8 in Oeste 3.5 mph 5 mph 46% 0 in
02:54 71.2 °F 49.5 °F 29.8 in OSO 3.1 mph 8.5 mph 46% 0 in
02:59 71.2 °F 49.1 °F 29.8 in SO 3.7 mph 9 mph 45.4% 0 in
03:04 71.4 °F 48.9 °F 29.8 in Oeste 4 mph 6.4 mph 45% 0 in
03:09 71.4 °F 48.7 °F 29.8 in Oeste 3.8 mph 7 mph 44.6% 0 in
03:14 71.4 °F 48.9 °F 29.8 in SO 3.6 mph 8.7 mph 44.9% 0 in
03:19 71.2 °F 48.9 °F 29.8 in SO 4 mph 9.2 mph 45% 0 in
03:24 71.2 °F 48.4 °F 29.8 in OSO 4.3 mph 5.9 mph 44.3% 0 in
03:29 71.2 °F 48.7 °F 29.8 in OSO 3.5 mph 6.2 mph 45% 0 in
03:34 71.1 °F 48.7 °F 29.8 in SO 3.1 mph 6 mph 45% 0 in
03:39 71.1 °F 48.7 °F 29.8 in Sur 3.4 mph 6 mph 45.3% 0 in
03:44 71.1 °F 49.8 °F 29.8 in SE 3.6 mph 6 mph 47.1% 0 in
03:49 71.1 °F 50.5 °F 29.8 in ESE 3.3 mph 6 mph 48.3% 0 in
03:54 70.7 °F 50.7 °F 29.8 in ESE 3.1 mph 6 mph 49.4% 0 in
03:59 70.3 °F 50.9 °F 29.8 in SE 3 mph 5 mph 50% 0 in
04:04 70.3 °F 50.9 °F 29.8 in ESE 2.9 mph 5 mph 50.4% 0 in
04:09 70.2 °F 51.4 °F 29.8 in ESE 2.3 mph 5 mph 51.6% 0 in
04:14 70.2 °F 51.8 °F 29.8 in NNE 1.8 mph 6.2 mph 52.2% 0 in
04:19 69.8 °F 52.2 °F 29.8 in NNO 1.8 mph 6 mph 53.5% 0 in
04:24 69.4 °F 51.8 °F 29.8 in NNO 1.8 mph 5.8 mph 53.2% 0 in
04:29 69.3 °F 50.4 °F 29.8 in ONO 2.5 mph 7.4 mph 50.8% 0 in
04:34 69.1 °F 48.9 °F 29.8 in ONO 3.1 mph 10.4 mph 48.8% 0 in
04:39 69.3 °F 48.4 °F 29.8 in ONO 4.8 mph 11.8 mph 47.5% 0 in
04:44 69.3 °F 48.6 °F 29.8 in Oeste 5.9 mph 12 mph 47.8% 0 in
04:49 69.1 °F 48.6 °F 29.8 in Oeste 6.5 mph 11.5 mph 48% 0 in
04:54 69.1 °F 48.9 °F 29.8 in OSO 6.9 mph 12 mph 48.5% 0 in
04:59 68.7 °F 49.3 °F 29.8 in Oeste 6.3 mph 10.4 mph 49.7% 0 in
05:04 68.5 °F 49.3 °F 29.8 in Oeste 5.9 mph 10 mph 50% 0 in
05:09 68.4 °F 49.1 °F 29.8 in OSO 5.6 mph 9.2 mph 50.1% 0 in
05:14 68.2 °F 48.9 °F 29.8 in OSO 5.4 mph 9 mph 50% 0 in
05:19 68.2 °F 48.4 °F 29.8 in OSO 4.7 mph 9.2 mph 49% 0 in
05:24 68.2 °F 48.4 °F 29.8 in SO 4.3 mph 9.2 mph 49% 0 in
05:29 68.2 °F 48.4 °F 29.8 in SO 5.4 mph 11.5 mph 49% 0 in
05:34 68.2 °F 48 °F 29.8 in OSO 6.2 mph 12 mph 48.5% 0 in
05:39 68.4 °F 48.4 °F 29.8 in Oeste 5.3 mph 9 mph 48.9% 0 in
05:44 68.2 °F 48.4 °F 29.8 in OSO 4.7 mph 8.5 mph 49.2% 0 in
05:49 67.8 °F 48.6 °F 29.8 in OSO 4.7 mph 9 mph 50% 0 in
05:54 67.8 °F 48.6 °F 29.8 in Sur 4.7 mph 8 mph 50% 0 in
05:59 67.8 °F 48.6 °F 29.8 in SSE 4 mph 6 mph 50.2% 0 in
06:04 67.8 °F 48.9 °F 29.8 in SE 3.6 mph 6 mph 50.9% 0 in
06:09 67.8 °F 49.3 °F 29.8 in SSE 3.3 mph 5 mph 51.6% 0 in
06:14 67.8 °F 49.6 °F 29.8 in Sur 3.1 mph 5.8 mph 52.3% 0 in
06:19 67.5 °F 50 °F 29.8 in SO 3.1 mph 6.2 mph 53.4% 0 in
06:24 67.5 °F 50.4 °F 29.8 in SO 3.1 mph 6 mph 54.3% 0 in
06:29 67.3 °F 49.5 °F 29.8 in SO 2.7 mph 6 mph 52.7% 0 in
06:34 67.3 °F 49.3 °F 29.8 in Sur 2.4 mph 6.9 mph 52.4% 0 in
06:39 67.3 °F 50 °F 29.8 in SSE 3.2 mph 7 mph 53.7% 0 in
06:44 67.3 °F 50.5 °F 29.8 in SSE 3.6 mph 7.4 mph 54.9% 0 in
06:49 67.1 °F 51.3 °F 29.8 in SSE 4.2 mph 8.1 mph 56.8% 0 in
06:54 66.7 °F 51.6 °F 29.8 in Sur 4.7 mph 8.1 mph 58.6% 0 in
06:59 66.4 °F 52.2 °F 29.8 in Sur 4.7 mph 8 mph 60.2% 0 in
07:04 66.2 °F 52.9 °F 29.8 in Sur 4.7 mph 7.6 mph 62.4% 0 in
07:09 66 °F 53.8 °F 29.8 in SSE 4.5 mph 8.1 mph 64.6% 0 in
07:14 66 °F 54.5 °F 29.8 in SSE 4.3 mph 7 mph 66.3% 0 in
07:19 66 °F 54.9 °F 29.8 in SE 4.3 mph 7 mph 67% 0 in
07:24 66.2 °F 55.2 °F 29.8 in SE 4.3 mph 6 mph 67.9% 0 in
07:29 66.2 °F 55.2 °F 29.8 in SSE 3.5 mph 6 mph 68% 0 in
07:34 66 °F 55.2 °F 29.8 in SSE 3.1 mph 6 mph 68.2% 0 in
07:39 66 °F 55.6 °F 29.8 in SSE 3.1 mph 6 mph 69% 0 in
07:44 66.2 °F 55.8 °F 29.8 in NNO 3.1 mph 6.4 mph 69% 0 in
07:49 65.8 °F 55.6 °F 29.8 in ENE 3 mph 7 mph 69% 0 in
07:54 65.8 °F 55.6 °F 29.8 in ESE 2.9 mph 7 mph 69.7% 0 in
07:59 65.8 °F 55.8 °F 29.8 in ESE 3 mph 5 mph 70% 0 in
08:04 65.8 °F 55.9 °F 29.8 in Este 3.1 mph 5.2 mph 70.1% 0 in
08:09 65.7 °F 56.1 °F 29.8 in ESE 3 mph 6.9 mph 71.3% 0 in
08:14 65.5 °F 56.5 °F 29.8 in ESE 2.9 mph 7.4 mph 72.8% 0 in
08:19 65.3 °F 56.3 °F 29.8 in SSE 3.9 mph 8.1 mph 72.6% 0 in
08:24 65.3 °F 56.3 °F 29.8 in Sur 4.7 mph 8 mph 72.8% 0 in
08:29 65.3 °F 56.5 °F 29.8 in SSE 4.3 mph 7.4 mph 73% 0 in
08:34 65.3 °F 56.3 °F 29.8 in SSE 4 mph 7 mph 73% 0 in
08:39 65.1 °F 56.1 °F 29.8 in SSE 4 mph 7 mph 73% 0 in
08:44 65.1 °F 56.5 °F 29.8 in Sur 4 mph 7 mph 73.7% 0 in
08:49 64.9 °F 56.5 °F 29.8 in Sur 3.8 mph 5.9 mph 74% 0 in
08:54 64.9 °F 56.7 °F 29.8 in Sur 3.6 mph 7.4 mph 74.4% 0 in
08:59 65.1 °F 57 °F 29.8 in Sur 4.3 mph 10.4 mph 75% 0 in
09:04 65.1 °F 56.8 °F 29.8 in SSO 4.7 mph 10 mph 74.4% 0 in
09:09 65.3 °F 56.5 °F 29.8 in SSO 5.1 mph 9 mph 73.3% 0 in
09:14 65.1 °F 55.6 °F 29.8 in SSO 5.4 mph 8.1 mph 71.1% 0 in
09:19 65.1 °F 54.9 °F 29.8 in SSO 4.5 mph 8 mph 69.2% 0 in
09:24 65.3 °F 53.6 °F 29.8 in SSO 4 mph 8.1 mph 65.8% 0 in
09:29 65.8 °F 53.1 °F 29.8 in Sur 4.7 mph 9.2 mph 63.6% 0 in
09:34 66.4 °F 52.5 °F 29.8 in SSO 5.2 mph 11.5 mph 61.1% 0 in
09:39 66.4 °F 52.5 °F 29.8 in Sur 6.3 mph 12 mph 61% 0 in
09:44 66.4 °F 52.5 °F 29.8 in SSO 6.9 mph 10 mph 61% 0 in
09:49 66.6 °F 52.7 °F 29.8 in SSO 5.9 mph 9.2 mph 61% 0 in
09:54 67.1 °F 52.9 °F 29.8 in SSO 5.2 mph 9 mph 60.2% 0 in
09:59 67.6 °F 52.9 °F 29.8 in SO 5.3 mph 9.2 mph 59.2% 0 in
10:04 67.8 °F 52.5 °F 29.8 in OSO 5.4 mph 9.2 mph 58% 0 in
10:09 67.8 °F 52.7 °F 29.8 in SO 5.3 mph 9 mph 58.4% 0 in
10:14 68.2 °F 52.9 °F 29.8 in SO 5.2 mph 9.7 mph 58.2% 0 in
10:19 68.4 °F 52.5 °F 29.8 in SSO 4.9 mph 10 mph 57.1% 0 in
10:24 68.2 °F 52.7 °F 29.8 in Sur 4.7 mph 9 mph 58% 0 in
10:25 68.2 °F 52.9 °F 29.8 in SSO 5 mph 7 mph 58% 0 in
Murcia-Puente Tocinos, España
Compliments of Weather Underground - 2 mb

La estación de MeteoMurcia.com, publica sus datos en los siguientes proyectos:

Weather Underground PWS IMURCIAP2 Meteoclimatic www.awekas.at

W3Counter
Web Analytics